createdAt,value
2022-09-06T00:01:17.720Z,37.16
2022-09-06T00:03:46.609Z,37.72
2022-09-06T00:06:18.043Z,37.05
2022-09-06T00:08:48.505Z,36.81
2022-09-06T00:11:18.204Z,37.65
2022-09-06T00:13:47.096Z,38.69
2022-09-06T00:16:30.105Z,37.36
2022-09-06T00:18:58.941Z,37.32
2022-09-06T00:21:30.860Z,38.37
2022-09-06T00:23:59.266Z,37.25
2022-09-06T00:26:27.603Z,40.92
2022-09-06T00:28:55.825Z,39.63
2022-09-06T00:31:26.633Z,37.43
2022-09-06T00:33:54.775Z,37.95
2022-09-06T00:36:23.382Z,39.94
2022-09-06T00:38:51.680Z,38.31
2022-09-06T00:41:20.172Z,37.95
2022-09-06T00:43:50.193Z,39.08
2022-09-06T00:46:28.226Z,39.43
2022-09-06T00:49:04.172Z,39.58
2022-09-06T00:51:34.776Z,37.64
2022-09-06T00:54:06.961Z,37.71
2022-09-06T00:56:41.179Z,39.14
2022-09-06T00:59:09.873Z,37.21
2022-09-06T01:01:38.160Z,39.17
2022-09-06T01:04:06.947Z,40.13
2022-09-06T01:07:10.435Z,41.45
2022-09-06T01:09:47.674Z,41.40
2022-09-06T01:13:05.208Z,39.28
2022-09-06T01:15:55.276Z,40.26
2022-09-06T01:19:13.583Z,39.25
2022-09-06T01:21:54.624Z,37.26
2022-09-06T01:24:50.214Z,39.70
2022-09-06T01:27:41.349Z,36.67
2022-09-06T01:30:14.599Z,39.41
2022-09-06T01:32:54.017Z,40.34
2022-09-06T01:35:57.612Z,41.33
2022-09-06T01:38:26.196Z,38.31
2022-09-06T01:40:54.569Z,39.06
2022-09-06T01:43:36.894Z,37.92
2022-09-06T01:46:45.891Z,38.42
2022-09-06T01:49:29.010Z,36.80
2022-09-06T01:52:14.171Z,37.11
2022-09-06T01:55:09.576Z,38.44
2022-09-06T01:57:37.725Z,37.04
2022-09-06T02:00:15.691Z,36.49
2022-09-06T02:03:18.640Z,36.94
2022-09-06T02:05:56.065Z,36.47
2022-09-06T02:08:34.518Z,36.39
2022-09-06T02:11:08.483Z,36.26
2022-09-06T02:13:47.520Z,37.30
2022-09-06T02:16:23.475Z,36.39
2022-09-06T02:19:12.714Z,36.90
2022-09-06T02:21:46.026Z,36.37
2022-09-06T02:24:23.496Z,36.55
2022-09-06T02:26:51.923Z,37.26
2022-09-06T02:29:20.178Z,37.44
2022-09-06T02:32:02.779Z,36.67
2022-09-06T02:34:56.561Z,36.79
2022-09-06T02:37:26.176Z,37.75
2022-09-06T02:39:56.131Z,37.45
2022-09-06T02:42:25.194Z,36.88
2022-09-06T02:44:53.150Z,37.25
2022-09-06T02:47:22.197Z,36.42
2022-09-06T02:49:50.716Z,36.42
2022-09-06T02:52:19.034Z,36.51
2022-09-06T02:54:47.344Z,36.73
2022-09-06T02:57:15.572Z,37.32
2022-09-06T02:59:43.887Z,38.09
2022-09-06T03:02:12.312Z,37.93
2022-09-06T03:04:40.216Z,39.64
2022-09-06T03:07:08.581Z,40.07
2022-09-06T03:09:36.812Z,38.69
2022-09-06T03:12:05.240Z,39.61
2022-09-06T03:14:36.126Z,37.48
2022-09-06T03:17:04.933Z,37.60
2022-09-06T03:19:33.211Z,37.04
2022-09-06T03:22:01.530Z,36.79
2022-09-06T03:24:29.743Z,36.94
2022-09-06T03:26:58.236Z,38.40
2022-09-06T03:29:26.584Z,44.17
2022-09-06T03:31:54.853Z,44.64
2022-09-06T03:34:23.103Z,41.13
2022-09-06T03:36:51.497Z,45.40
2022-09-06T03:39:19.754Z,43.95
2022-09-06T03:41:47.997Z,43.81
2022-09-06T03:44:16.406Z,47.08
2022-09-06T03:46:44.622Z,45.47
2022-09-06T03:49:13.057Z,46.32
2022-09-06T03:51:41.610Z,46.04
2022-09-06T03:54:09.869Z,47.62
2022-09-06T03:56:38.244Z,46.91
2022-09-06T03:59:07.134Z,45.44
2022-09-06T04:01:36.210Z,43.70
2022-09-06T04:04:04.623Z,41.83
2022-09-06T04:06:32.832Z,42.35
2022-09-06T04:09:01.093Z,44.11
2022-09-06T04:11:29.385Z,41.39
2022-09-06T04:13:57.645Z,42.08
2022-09-06T04:16:25.995Z,41.01
2022-09-06T04:18:54.320Z,40.31
2022-09-06T04:21:23.330Z,41.28
2022-09-06T04:23:51.704Z,41.17
2022-09-06T04:26:20.063Z,41.06
2022-09-06T04:28:48.408Z,43.39
2022-09-06T04:31:16.652Z,42.84
2022-09-06T04:33:44.500Z,45.10
2022-09-06T04:36:12.952Z,45.19
2022-09-06T04:38:44.747Z,44.22
2022-09-06T04:41:17.051Z,43.51
2022-09-06T04:43:45.663Z,44.69
2022-09-06T04:46:24.938Z,42.63
2022-09-06T04:48:55.120Z,40.37
2022-09-06T04:51:24.653Z,41.95
2022-09-06T04:53:53.284Z,40.73
2022-09-06T04:56:26.169Z,39.92
2022-09-06T04:58:55.708Z,40.11
2022-09-06T05:01:26.186Z,38.97
2022-09-06T05:03:56.976Z,38.79
2022-09-06T05:06:27.076Z,39.61
2022-09-06T05:08:55.545Z,40.60
2022-09-06T05:11:23.481Z,39.27
2022-09-06T05:13:51.868Z,39.41
2022-09-06T05:16:19.833Z,38.23
2022-09-06T05:18:48.300Z,38.15
2022-09-06T05:21:16.612Z,38.33
2022-09-06T05:23:45.356Z,39.09
2022-09-06T05:26:13.349Z,38.06
2022-09-06T05:28:41.304Z,37.53
2022-09-06T05:31:13.246Z,37.71
2022-09-06T05:33:41.281Z,37.74
2022-09-06T05:36:09.992Z,43.90
2022-09-06T05:38:37.961Z,43.52
2022-09-06T05:41:06.452Z,43.49
2022-09-06T05:43:34.298Z,47.73
2022-09-06T05:46:02.373Z,48.15
2022-09-06T05:48:36.039Z,42.30
2022-09-06T05:51:12.661Z,48.84
2022-09-06T05:53:44.497Z,44.95
2022-09-06T05:56:14.517Z,46.03
2022-09-06T05:58:43.005Z,44.36
2022-09-06T06:01:23.054Z,45.29
2022-09-06T06:03:58.906Z,48.13
2022-09-06T06:06:33.516Z,44.82
2022-09-06T06:09:01.900Z,44.64
2022-09-06T06:11:31.309Z,46.25
2022-09-06T06:13:59.412Z,43.47
2022-09-06T06:16:27.523Z,46.11
2022-09-06T06:18:56.016Z,43.21
2022-09-06T06:21:30.596Z,44.25
2022-09-06T06:24:03.000Z,42.34
2022-09-06T06:26:35.528Z,41.73
2022-09-06T06:29:07.915Z,40.95
2022-09-06T06:31:38.511Z,42.43
2022-09-06T06:34:08.002Z,40.53
2022-09-06T06:36:37.084Z,44.88
2022-09-06T06:39:08.571Z,43.34
2022-09-06T06:41:37.486Z,41.62
2022-09-06T06:44:23.255Z,41.60
2022-09-06T06:46:52.032Z,43.29
2022-09-06T06:49:20.052Z,41.94
2022-09-06T06:51:48.175Z,41.74
2022-09-06T06:54:16.119Z,41.71
2022-09-06T06:56:45.600Z,44.92
2022-09-06T06:59:14.417Z,46.33
2022-09-06T07:01:42.509Z,52.98
2022-09-06T07:04:12.184Z,47.89
2022-09-06T07:12:33.323Z,49.13
2022-09-06T07:15:01.196Z,47.78
2022-09-06T07:17:29.646Z,53.69
2022-09-06T07:20:13.169Z,54.76
2022-09-06T07:22:42.683Z,48.43
2022-09-06T07:25:14.448Z,53.47
2022-09-06T07:30:19.939Z,49.92
2022-09-06T07:32:48.682Z,51.35
2022-09-06T07:35:16.714Z,46.82
2022-09-06T07:38:01.649Z,47.41
2022-09-06T07:40:31.264Z,53.63
2022-09-06T07:43:00.106Z,50.47
2022-09-06T07:45:28.196Z,49.25
2022-09-06T07:48:00.703Z,47.57
2022-09-06T07:50:47.433Z,47.53
2022-09-06T07:53:25.992Z,46.38
2022-09-06T07:56:00.859Z,48.96
2022-09-06T07:58:30.810Z,48.11
2022-09-06T08:01:39.055Z,49.93
2022-09-06T08:04:13.976Z,49.23
2022-09-06T08:09:37.229Z,50.52
2022-09-06T08:12:09.245Z,50.50
2022-09-06T08:14:37.681Z,46.96
2022-09-06T08:17:05.619Z,46.70
2022-09-06T08:19:34.517Z,47.64
2022-09-06T08:22:02.700Z,50.12
2022-09-06T08:24:31.164Z,51.63
2022-09-06T08:26:59.140Z,47.56
2022-09-06T08:29:27.543Z,47.53
2022-09-06T08:31:55.897Z,45.45
2022-09-06T08:34:24.211Z,44.99
2022-09-06T08:36:52.320Z,45.47
2022-09-06T08:39:20.358Z,44.81
2022-09-06T08:41:55.888Z,45.97
2022-09-06T08:47:26.251Z,50.22
2022-09-06T08:50:06.050Z,47.89
2022-09-06T08:53:23.024Z,48.00
2022-09-06T08:56:18.523Z,49.16
2022-09-06T08:59:08.171Z,49.93
2022-09-06T09:02:07.132Z,49.17
2022-09-06T09:04:43.601Z,49.32
2022-09-06T09:07:38.721Z,49.20
2022-09-06T09:10:17.445Z,48.00
2022-09-06T09:12:49.032Z,48.69
2022-09-06T09:15:20.741Z,48.18
2022-09-06T09:17:51.089Z,49.79
2022-09-06T09:20:19.209Z,50.15
2022-09-06T09:22:47.854Z,52.00
2022-09-06T09:25:23.694Z,50.24
2022-09-06T09:27:57.792Z,50.71
2022-09-06T09:30:49.981Z,51.56
2022-09-06T09:33:30.307Z,51.33
2022-09-06T09:36:13.142Z,50.59
2022-09-06T09:38:46.854Z,49.89
2022-09-06T09:41:32.937Z,51.65
2022-09-06T09:44:06.300Z,50.23
2022-09-06T09:46:39.786Z,50.10
2022-09-06T09:49:11.837Z,49.93
2022-09-06T09:52:06.953Z,50.12
2022-09-06T09:54:39.466Z,49.25
2022-09-06T09:57:17.874Z,49.78
2022-09-06T10:00:13.862Z,49.58
2022-09-06T10:02:43.456Z,48.00
2022-09-06T10:05:16.867Z,47.58
2022-09-06T10:07:52.993Z,46.56
2022-09-06T10:10:24.122Z,46.66
2022-09-06T10:13:31.811Z,46.16
2022-09-06T10:16:03.222Z,46.13
2022-09-06T10:18:43.685Z,45.48
2022-09-06T10:21:16.091Z,45.07
2022-09-06T10:24:30.580Z,44.66
2022-09-06T10:27:03.650Z,43.98
2022-09-06T10:29:41.328Z,43.36
2022-09-06T10:32:30.961Z,43.55
2022-09-06T10:35:21.100Z,43.20
2022-09-06T10:38:32.300Z,42.76
2022-09-06T10:41:11.349Z,42.53
2022-09-06T10:44:31.603Z,42.62
2022-09-06T10:47:12.257Z,41.25
2022-09-06T10:49:55.457Z,41.38
2022-09-06T10:52:41.075Z,41.08
2022-09-06T10:55:15.977Z,40.33
2022-09-06T11:00:47.560Z,37.48
2022-09-06T11:06:32.389Z,35.07
2022-09-06T11:09:55.507Z,33.92
2022-09-06T11:12:46.246Z,33.34
2022-09-06T11:15:17.704Z,32.75
2022-09-06T11:18:05.654Z,30.43
2022-09-06T11:20:45.873Z,31.06
2022-09-06T11:23:48.247Z,29.83
2022-09-06T11:26:40.044Z,30.23
2022-09-06T11:29:23.100Z,29.77
2022-09-06T11:34:56.511Z,28.09
2022-09-06T11:37:39.660Z,27.30
2022-09-06T11:43:01.480Z,26.50
2022-09-06T11:45:52.626Z,26.44
2022-09-06T11:48:27.124Z,25.53
2022-09-06T11:50:58.381Z,25.58
2022-09-06T11:53:59.909Z,24.83
2022-09-06T11:56:48.177Z,24.85
2022-09-06T11:59:19.773Z,24.58
2022-09-06T12:02:37.845Z,23.82
2022-09-06T12:05:07.440Z,22.51
2022-09-06T12:07:37.876Z,24.02
2022-09-06T12:10:41.880Z,23.94
2022-09-06T12:13:44.920Z,22.95
2022-09-06T12:16:15.561Z,20.36
2022-09-06T12:18:46.668Z,20.31
2022-09-06T12:21:35.315Z,20.15
2022-09-06T12:24:06.396Z,20.38
2022-09-06T12:27:16.016Z,21.22
2022-09-06T12:30:04.309Z,20.33
2022-09-06T12:32:56.138Z,20.41
2022-09-06T12:38:25.471Z,18.56
2022-09-06T12:40:58.916Z,20.30
2022-09-06T12:43:27.053Z,17.67
2022-09-06T12:45:55.428Z,19.65
2022-09-06T12:48:33.371Z,20.01
2022-09-06T12:51:09.198Z,19.35
2022-09-06T12:53:38.276Z,19.12
2022-09-06T12:56:12.492Z,18.68
2022-09-06T12:58:40.923Z,18.24
2022-09-06T13:01:33.706Z,19.66
2022-09-06T13:04:09.952Z,19.04
2022-09-06T13:06:45.729Z,19.24
2022-09-06T13:09:19.099Z,19.79
2022-09-06T13:11:52.096Z,19.46
2022-09-06T13:14:31.225Z,19.77
2022-09-06T13:16:59.897Z,18.78
2022-09-06T13:19:37.190Z,16.61
2022-09-06T13:22:10.816Z,18.75
2022-09-06T13:24:57.236Z,19.24
2022-09-06T13:27:31.228Z,100.00
2022-09-06T13:30:09.125Z,100.00
2022-09-06T13:32:46.852Z,100.00
2022-09-06T13:35:29.518Z,100.00
2022-09-06T13:38:39.733Z,100.00
2022-09-06T13:41:37.063Z,100.00
2022-09-06T13:44:19.862Z,100.00
2022-09-06T13:46:53.797Z,100.00
2022-09-06T13:49:23.785Z,100.00
2022-09-06T13:51:54.515Z,100.00
2022-09-06T13:54:22.920Z,100.00
2022-09-06T13:56:52.077Z,100.00
2022-09-06T13:59:20.334Z,100.00
2022-09-06T14:02:03.143Z,100.00
2022-09-06T14:04:32.524Z,100.00
2022-09-06T14:07:00.839Z,100.00
2022-09-06T14:09:29.973Z,100.00
2022-09-06T14:11:57.850Z,100.00
2022-09-06T14:14:25.837Z,100.00
2022-09-06T14:16:54.089Z,100.00
2022-09-06T14:19:22.421Z,100.00
2022-09-06T14:21:50.713Z,100.00
2022-09-06T14:24:19.034Z,100.00
2022-09-06T14:26:47.074Z,100.00
2022-09-06T14:29:15.049Z,17.78
2022-09-06T14:31:42.966Z,19.25
2022-09-06T14:34:13.040Z,18.35
2022-09-06T14:36:41.135Z,18.45
2022-09-06T14:39:09.180Z,18.17
2022-09-06T14:41:37.201Z,18.49
2022-09-06T14:44:05.508Z,18.36
2022-09-06T14:46:33.911Z,18.11
2022-09-06T14:49:09.990Z,18.70
2022-09-06T14:51:39.681Z,18.85
2022-09-06T14:54:14.494Z,18.95
2022-09-06T14:56:44.078Z,18.81
2022-09-06T14:59:12.669Z,18.94
2022-09-06T15:02:05.553Z,18.52
2022-09-06T15:04:33.635Z,18.72
2022-09-06T15:07:01.975Z,18.42
2022-09-06T15:09:30.259Z,18.46
2022-09-06T15:11:58.444Z,19.13
2022-09-06T15:14:31.424Z,18.86
2022-09-06T15:17:00.018Z,18.97
2022-09-06T15:19:30.082Z,19.09
2022-09-06T15:22:00.137Z,19.13
2022-09-06T15:24:28.801Z,18.95
2022-09-06T15:26:57.121Z,18.77
2022-09-06T15:29:27.014Z,19.46
2022-09-06T15:31:56.093Z,19.04
2022-09-06T15:34:26.620Z,19.47
2022-09-06T15:36:56.508Z,18.85
2022-09-06T15:39:29.287Z,19.00
2022-09-06T15:41:57.995Z,19.27
2022-09-06T15:44:26.400Z,19.31
2022-09-06T15:46:58.110Z,19.17
2022-09-06T15:49:32.014Z,18.84
2022-09-06T15:52:03.215Z,19.43
2022-09-06T15:54:50.511Z,19.75
2022-09-06T15:57:18.907Z,19.76
2022-09-06T15:59:47.244Z,19.10
2022-09-06T16:02:15.345Z,19.31
2022-09-06T16:04:43.462Z,19.75
2022-09-06T16:07:11.837Z,19.95
2022-09-06T16:09:40.238Z,19.59
2022-09-06T16:12:09.086Z,19.94
2022-09-06T16:14:38.164Z,19.75
2022-09-06T16:17:06.603Z,20.46
2022-09-06T16:19:34.870Z,20.19
2022-09-06T16:22:04.259Z,20.95
2022-09-06T16:24:32.088Z,20.83
2022-09-06T16:27:00.562Z,20.36
2022-09-06T16:29:28.439Z,21.05
2022-09-06T16:31:59.780Z,21.13
2022-09-06T16:34:28.536Z,21.60
2022-09-06T16:36:56.983Z,21.77
2022-09-06T16:39:25.128Z,22.49
2022-09-06T16:41:53.490Z,22.69
2022-09-06T16:44:21.776Z,23.08
2022-09-06T16:46:50.751Z,24.17
2022-09-06T16:49:19.269Z,23.77
2022-09-06T16:51:50.075Z,23.98
2022-09-06T16:54:19.021Z,24.29
2022-09-06T16:56:47.787Z,24.30
2022-09-06T16:59:17.104Z,24.00
2022-09-06T17:01:45.838Z,24.88
2022-09-06T17:04:14.599Z,25.05
2022-09-06T17:06:44.554Z,24.49
2022-09-06T17:09:17.631Z,25.06
2022-09-06T17:11:49.674Z,25.16
2022-09-06T17:14:18.975Z,25.28
2022-09-06T17:17:05.427Z,25.13
2022-09-06T17:19:43.055Z,26.17
2022-09-06T17:22:13.077Z,25.88
2022-09-06T17:24:41.566Z,25.82
2022-09-06T17:27:10.012Z,25.88
2022-09-06T17:29:39.923Z,26.18
2022-09-06T17:32:10.180Z,26.79
2022-09-06T17:34:40.001Z,26.97
2022-09-06T17:37:08.674Z,27.35
2022-09-06T17:39:37.354Z,28.79
2022-09-06T17:42:06.047Z,27.62
2022-09-06T17:44:34.673Z,28.14
2022-09-06T17:47:13.335Z,28.17
2022-09-06T17:49:43.084Z,29.13
2022-09-06T17:52:11.911Z,28.60
2022-09-06T17:54:40.159Z,28.03
2022-09-06T17:57:08.447Z,28.13
2022-09-06T17:59:36.774Z,28.85
2022-09-06T18:02:05.512Z,29.38
2022-09-06T18:04:33.992Z,28.69
2022-09-06T18:07:02.368Z,30.68
2022-09-06T18:09:30.710Z,30.03
2022-09-06T18:11:59.108Z,29.49
2022-09-06T18:14:28.492Z,29.01
2022-09-06T18:16:56.976Z,30.07
2022-09-06T18:19:26.073Z,29.51
2022-09-06T18:21:56.989Z,29.63
2022-09-06T18:24:25.236Z,30.31
2022-09-06T18:26:53.516Z,31.30
2022-09-06T18:29:22.071Z,30.45
2022-09-06T18:31:53.454Z,31.39
2022-09-06T18:34:22.005Z,32.00
2022-09-06T18:36:50.408Z,31.32
2022-09-06T18:39:20.236Z,32.80
2022-09-06T18:42:14.486Z,32.29
2022-09-06T18:44:43.903Z,31.29
2022-09-06T18:47:12.544Z,32.72
2022-09-06T18:49:44.121Z,32.67
2022-09-06T18:52:12.823Z,33.27
2022-09-06T18:54:41.178Z,33.30
2022-09-06T18:57:09.482Z,32.57
2022-09-06T18:59:37.967Z,32.85
2022-09-06T19:02:06.407Z,31.90
2022-09-06T19:04:34.471Z,31.38
2022-09-06T19:07:03.767Z,31.63
2022-09-06T19:09:32.991Z,31.69
2022-09-06T19:12:01.799Z,30.38
2022-09-06T19:14:30.125Z,30.50
2022-09-06T19:16:58.455Z,30.30
2022-09-06T19:19:26.738Z,30.50
2022-09-06T19:21:55.001Z,31.88
2022-09-06T19:24:24.487Z,31.94
2022-09-06T19:26:53.273Z,32.05
2022-09-06T19:29:21.738Z,34.37
2022-09-06T19:31:49.771Z,32.59
2022-09-06T19:34:18.424Z,31.82
2022-09-06T19:36:49.954Z,32.83
2022-09-06T19:39:18.013Z,32.65
2022-09-06T19:41:47.309Z,32.74
2022-09-06T19:44:17.068Z,33.56
2022-09-06T19:46:46.767Z,35.16
2022-09-06T19:49:23.269Z,33.39
2022-09-06T19:51:52.839Z,34.25
2022-09-06T19:54:21.220Z,33.67
2022-09-06T19:56:49.163Z,35.06
2022-09-06T19:59:17.830Z,35.01
2022-09-06T20:01:47.541Z,33.57
2022-09-06T20:04:16.146Z,33.14
2022-09-06T20:06:44.208Z,32.32
2022-09-06T20:09:13.367Z,32.26
2022-09-06T20:11:42.697Z,32.15
2022-09-06T20:14:12.474Z,32.35
2022-09-06T20:16:42.376Z,31.94
2022-09-06T20:19:14.122Z,32.20
2022-09-06T20:21:42.982Z,32.43
2022-09-06T20:24:11.214Z,32.12
2022-09-06T20:26:40.282Z,31.60
2022-09-06T20:29:08.822Z,31.60
2022-09-06T20:31:37.989Z,32.96
2022-09-06T20:34:07.310Z,32.01
2022-09-06T20:36:35.848Z,32.73
2022-09-06T20:39:04.392Z,33.09
2022-09-06T20:41:33.669Z,33.72
2022-09-06T20:44:01.984Z,32.60
2022-09-06T20:46:35.478Z,33.83
2022-09-06T20:49:05.051Z,32.43
2022-09-06T20:51:35.683Z,34.38
2022-09-06T20:54:05.653Z,34.04
2022-09-06T20:56:38.680Z,32.48
2022-09-06T20:59:10.905Z,32.83
2022-09-06T21:01:45.816Z,32.45
2022-09-06T21:04:16.441Z,32.52
2022-09-06T21:06:46.530Z,32.08
2022-09-06T21:09:15.040Z,32.21
2022-09-06T21:11:43.751Z,31.79
2022-09-06T21:14:12.755Z,32.04
2022-09-06T21:16:41.153Z,31.96
2022-09-06T21:19:11.225Z,32.07
2022-09-06T21:21:40.100Z,32.15
2022-09-06T21:24:10.479Z,32.52
2022-09-06T21:26:39.049Z,34.44
2022-09-06T21:29:07.485Z,33.78
2022-09-06T21:31:37.349Z,33.63
2022-09-06T21:34:15.692Z,34.29
2022-09-06T21:36:45.182Z,33.18
2022-09-06T21:39:13.893Z,32.94
2022-09-06T21:41:43.397Z,33.02
2022-09-06T21:44:12.287Z,33.08
2022-09-06T21:46:41.087Z,34.80
2022-09-06T21:49:13.496Z,34.32
2022-09-06T21:51:42.569Z,33.70
2022-09-06T22:07:42.403Z,33.63
2022-09-06T22:10:10.235Z,33.97
2022-09-06T22:12:38.558Z,33.96
2022-09-06T22:17:50.180Z,34.32
2022-09-06T22:20:18.608Z,34.00
2022-09-06T22:22:46.520Z,34.67
2022-09-06T22:25:15.232Z,34.44
2022-09-06T22:27:43.171Z,35.99
2022-09-06T22:30:12.360Z,36.39
2022-09-06T22:32:40.656Z,36.20
2022-09-06T22:35:09.836Z,37.30
2022-09-06T22:37:38.061Z,37.38
2022-09-06T22:40:06.989Z,37.36
2022-09-06T22:42:34.965Z,37.32
2022-09-06T22:45:04.116Z,38.09
2022-09-06T22:52:57.104Z,37.60
2022-09-06T22:55:25.120Z,37.67
2022-09-06T22:57:53.481Z,38.62
2022-09-06T23:00:21.740Z,36.75
2022-09-06T23:02:50.051Z,38.78
2022-09-06T23:05:18.291Z,37.20
2022-09-06T23:07:46.515Z,38.33
2022-09-06T23:10:14.344Z,37.77
2022-09-06T23:12:42.339Z,36.30
2022-09-06T23:15:10.651Z,40.35
2022-09-06T23:17:39.007Z,38.00
2022-09-06T23:20:07.622Z,42.03
2022-09-06T23:22:35.963Z,43.73
2022-09-06T23:25:04.498Z,42.59
2022-09-06T23:27:32.426Z,40.98
2022-09-06T23:30:02.757Z,38.58
2022-09-06T23:32:33.215Z,41.42
2022-09-06T23:35:01.540Z,39.24
2022-09-06T23:37:29.379Z,38.06
2022-09-06T23:39:57.779Z,37.07
2022-09-06T23:42:25.692Z,40.27
2022-09-06T23:44:57.456Z,37.61
2022-09-06T23:47:25.537Z,37.77
2022-09-06T23:49:53.703Z,37.14
2022-09-06T23:52:21.723Z,37.52
2022-09-06T23:54:50.046Z,39.73
2022-09-06T23:57:18.343Z,38.43
2022-09-06T23:59:46.638Z,39.13
